Siler City, North Carolina
Current Conditions -  °F | °C
As of 1:55 PM on Thursday 23 Oct 2014 (Local Time) from K5W8 Reporting Station
Clear Clear  
Wind Chill: 65°   Ceiling: Unl
Heat Index: 65°   Visibility: 10mi
Dew Point: 43°   Wind: 8mph
Humidity: 46%   Direction: 330°NNW
Pressure: 29.99"   Gusts: NA
Location:  35.72°N, 79.46°W
Report Text: K5W8 231755Z AUTO 33007KT 10SM CLR 18/06 A2999 RMK AO2 T01810062 10182 20011
Loading
Personal Weather Stations






























Interactive Weather Map
Tropical Storm Tracking
New forecast layout! Learn more

10-Day Weather Forecast

Advertisements
Track Severe Weather on mobile